Time;durP1;ratioP1;P1;durP2;ratioP2;P2;SDS_P1;SDS_P2;PMS_P1;PMS_P2;Temp;Humidity;BMP_temperature;BMP_pressure;BME280_temperature;BME280_humidity;BME280_pressure;Samples;Min_cycle;Max_cycle;Signal;HPM_P1;HPM_P2
2021/09/29 00:04:40;;;;;;;10.50;6.60;;;;;;;12.13;63.75;99659.17;235733;1195;139003;-61
2021/09/29 00:09:43;;;;;;;10.20;6.30;;;;;;;12.04;63.72;99657.92;235657;1195;139999;-63
2021/09/29 00:14:46;;;;;;;9.40;6.70;;;;;;;11.96;63.93;99658.74;235877;1195;139588;-65
2021/09/29 00:19:49;;;;;;;9.50;6.20;;;;;;;11.88;63.86;99657.39;236319;1195;138678;-63
2021/09/29 00:24:52;;;;;;;11.50;6.60;;;;;;;11.79;63.99;99655.02;236224;1195;138633;-62
2021/09/29 00:30:09;;;;;;;11.00;6.20;;;;;;;11.73;63.93;99654.83;235807;1195;140208;-61
2021/09/29 00:35:18;;;;;;;7.50;5.50;;;;;;;11.71;64.05;99654.63;235752;1195;140122;-62
2021/09/29 00:40:21;;;;;;;9.10;5.40;;;;;;;11.71;64.09;99653.35;235850;1195;139078;-62
2021/09/29 00:45:24;;;;;;;10.30;6.00;;;;;;;11.72;64.25;99656.30;236333;1193;139116;-61
2021/09/29 00:50:28;;;;;;;10.50;5.90;;;;;;;11.68;64.23;99655.15;236122;1195;140389;-62
2021/09/29 00:55:31;;;;;;;9.50;6.50;;;;;;;11.62;64.26;99653.31;236200;1195;139380;-61
2021/09/29 01:00:34;;;;;;;13.10;6.50;;;;;;;11.54;64.11;99646.65;236181;1195;138934;-59
2021/09/29 01:05:41;;;;;;;10.00;6.70;;;;;;;11.47;64.30;99640.53;236212;1194;139430;-61
2021/09/29 01:10:47;;;;;;;10.70;6.50;;;;;;;11.38;64.34;99636.73;235780;1195;139764;-61
2021/09/29 01:16:03;;;;;;;11.50;6.50;;;;;;;11.31;64.65;99637.98;235752;1194;138757;-61
2021/09/29 01:21:11;;;;;;;10.40;6.40;;;;;;;11.25;64.58;99636.77;236131;1194;138950;-63
2021/09/29 01:26:25;;;;;;;9.00;5.80;;;;;;;11.22;64.69;99625.02;236470;1194;139553;-63
2021/09/29 01:31:30;;;;;;;10.80;6.60;;;;;;;11.23;64.66;99620.14;236112;1195;139231;-64
2021/09/29 01:36:33;;;;;;;9.30;5.90;;;;;;;11.22;64.45;99621.83;235624;1196;138891;-65
2021/09/29 01:41:39;;;;;;;13.20;6.80;;;;;;;11.21;64.57;99621.86;236084;1195;140385;-63
2021/09/29 01:46:42;;;;;;;10.00;6.20;;;;;;;11.17;64.42;99623.71;236277;1195;138845;-62
2021/09/29 01:51:49;;;;;;;10.00;6.00;;;;;;;11.08;64.47;99621.16;235997;1195;139077;-64
2021/09/29 01:56:52;;;;;;;9.60;5.90;;;;;;;11.01;64.45;99609.66;236249;1195;139044;-64
2021/09/29 02:01:55;;;;;;;10.20;6.30;;;;;;;10.97;64.44;99614.98;236288;1194;139597;-63
2021/09/29 02:06:59;;;;;;;12.50;6.30;;;;;;;10.90;64.61;99607.94;236240;1195;139895;-63
2021/09/29 02:12:02;;;;;;;11.10;5.90;;;;;;;10.86;64.74;99604.80;236301;1195;140024;-60
2021/09/29 02:17:05;;;;;;;11.70;6.30;;;;;;;10.85;64.51;99593.50;236038;1195;139595;-61
2021/09/29 02:22:09;;;;;;;9.20;6.00;;;;;;;10.82;64.74;99595.95;236028;1195;139685;-61
2021/09/29 02:27:13;;;;;;;9.30;6.10;;;;;;;10.77;64.74;99593.05;236003;1195;139570;-59
2021/09/29 02:32:16;;;;;;;12.80;6.70;;;;;;;10.72;64.55;99586.41;235999;1194;140513;-59
2021/09/29 02:37:19;;;;;;;12.50;6.80;;;;;;;10.66;64.56;99584.05;236284;1195;139505;-60
2021/09/29 02:42:22;;;;;;;11.00;6.80;;;;;;;10.58;64.52;99575.56;236406;1195;162183;-61
2021/09/29 02:47:25;;;;;;;12.10;6.90;;;;;;;10.51;64.59;99571.70;236230;1194;140018;-59
2021/09/29 02:52:28;;;;;;;10.30;6.90;;;;;;;10.44;64.56;99563.20;235809;1195;139994;-60
2021/09/29 02:57:33;;;;;;;13.60;6.70;;;;;;;10.39;64.94;99560.63;235739;1196;138823;-60
2021/09/29 03:02:36;;;;;;;9.20;6.50;;;;;;;10.36;64.66;99561.69;235977;1195;140735;-59
2021/09/29 03:07:39;;;;;;;10.00;6.70;;;;;;;10.34;64.76;99568.86;236133;1195;139756;-60
2021/09/29 03:12:42;;;;;;;11.20;6.70;;;;;;;10.33;64.89;99574.61;236411;1195;139142;-59
2021/09/29 03:17:45;;;;;;;11.70;7.00;;;;;;;10.30;64.98;99575.11;235935;1195;140413;-58
2021/09/29 03:22:49;;;;;;;10.80;6.60;;;;;;;10.26;64.91;99567.00;235971;1195;138972;-63
2021/09/29 03:27:53;;;;;;;10.40;6.70;;;;;;;10.19;64.94;99561.83;236224;1194;139249;-63
2021/09/29 03:32:56;;;;;;;9.40;6.40;;;;;;;10.13;64.93;99557.71;236035;1195;138817;-61
2021/09/29 03:37:59;;;;;;;10.30;7.00;;;;;;;10.08;65.04;99557.29;235987;1195;140034;-61
2021/09/29 03:43:02;;;;;;;14.30;6.80;;;;;;;10.02;64.95;99550.84;236059;1195;138780;-65
2021/09/29 03:48:06;;;;;;;12.40;7.30;;;;;;;9.96;65.00;99550.27;235734;1195;140435;-62
2021/09/29 03:53:09;;;;;;;11.30;6.60;;;;;;;9.93;65.13;99548.23;235941;1195;139558;-64
2021/09/29 03:58:12;;;;;;;11.90;7.20;;;;;;;9.96;65.12;99546.02;236089;1195;139248;-63
2021/09/29 04:03:15;;;;;;;10.20;6.80;;;;;;;10.00;65.27;99545.79;236001;1195;138981;-62
2021/09/29 04:08:18;;;;;;;12.10;7.30;;;;;;;9.97;65.24;99549.47;235951;1195;139280;-62
2021/09/29 04:13:23;;;;;;;12.20;7.70;;;;;;;9.92;65.27;99546.73;236144;1195;138879;-63
2021/09/29 04:18:26;;;;;;;11.00;6.40;;;;;;;9.88;65.14;99545.85;236160;1195;138960;-66
2021/09/29 04:23:29;;;;;;;11.50;7.10;;;;;;;9.85;65.36;99541.80;236274;1195;140017;-62
2021/09/29 04:28:32;;;;;;;10.70;6.70;;;;;;;9.79;65.15;99533.58;236107;1195;141338;-64
2021/09/29 04:33:36;;;;;;;11.60;6.70;;;;;;;9.70;65.29;99533.12;236178;1194;138732;-62
2021/09/29 04:38:39;;;;;;;10.70;6.50;;;;;;;9.64;65.26;99530.59;236321;1194;139047;-65
2021/09/29 04:43:42;;;;;;;10.60;6.80;;;;;;;9.65;65.39;99525.92;236152;1195;140292;-63
2021/09/29 04:48:45;;;;;;;11.40;6.70;;;;;;;9.68;65.44;99523.67;236305;1194;139061;-62
2021/09/29 04:53:48;;;;;;;14.30;7.80;;;;;;;9.67;65.44;99520.86;236209;1195;138942;-66
2021/09/29 04:58:51;;;;;;;11.10;7.50;;;;;;;9.68;65.72;99518.88;236062;1195;139043;-60
2021/09/29 05:03:55;;;;;;;13.10;7.10;;;;;;;9.73;65.83;99522.38;235990;1195;141045;-62
2021/09/29 05:08:58;;;;;;;13.90;6.90;;;;;;;9.78;65.65;99526.89;235729;1196;141519;-61
2021/09/29 05:14:01;;;;;;;11.30;7.00;;;;;;;9.82;66.15;99524.40;235219;1195;138696;-63
2021/09/29 05:19:04;;;;;;;14.00;9.30;;;;;;;9.83;65.98;99524.89;236368;1195;138988;-64
2021/09/29 05:24:07;;;;;;;10.90;7.20;;;;;;;9.85;65.93;99523.51;236238;1195;139665;-63
2021/09/29 05:29:11;;;;;;;201.80;132.90;;;;;;;9.93;65.99;99517.61;236271;1195;139519;-65
2021/09/29 05:34:14;;;;;;;22.20;12.20;;;;;;;10.07;66.30;99516.20;235993;1194;139100;-63
2021/09/29 05:39:18;;;;;;;14.20;8.90;;;;;;;10.22;66.45;99518.61;236082;1195;140275;-64
2021/09/29 05:44:21;;;;;;;473.50;359.00;;;;;;;10.25;66.16;99517.90;236031;1195;140106;-60
2021/09/29 05:49:25;;;;;;;24.40;16.10;;;;;;;10.29;66.29;99517.88;236258;1195;140666;-63
2021/09/29 05:54:29;;;;;;;17.10;11.10;;;;;;;10.31;66.09;99518.84;236193;1195;139086;-63
2021/09/29 05:59:32;;;;;;;13.80;9.30;;;;;;;10.27;65.93;99516.77;236049;1195;140713;-62
2021/09/29 06:04:35;;;;;;;14.00;9.00;;;;;;;10.24;66.13;99513.34;236051;1195;139423;-60
2021/09/29 06:09:40;;;;;;;14.70;9.10;;;;;;;10.26;66.09;99511.48;236079;1195;139793;-61
2021/09/29 06:14:49;;;;;;;15.50;9.80;;;;;;;10.30;66.22;99507.92;236276;1195;139454;-63
2021/09/29 06:19:54;;;;;;;18.70;10.10;;;;;;;10.35;66.18;99509.03;236230;1195;139126;-62
2021/09/29 06:24:57;;;;;;;43.30;26.20;;;;;;;10.41;66.62;99511.74;236197;1195;139915;-60
2021/09/29 06:30:00;;;;;;;20.00;11.90;;;;;;;10.50;66.55;99517.81;236394;1195;139562;-63
2021/09/29 06:35:04;;;;;;;17.60;11.30;;;;;;;10.54;66.53;99520.11;236187;1195;141281;-62
2021/09/29 06:40:08;;;;;;;23.60;12.60;;;;;;;10.55;66.65;99517.36;236138;1195;139109;-62
2021/09/29 06:45:12;;;;;;;23.50;13.50;;;;;;;10.55;66.52;99520.58;236076;1195;139139;-61
2021/09/29 06:50:20;;;;;;;22.10;12.60;;;;;;;10.59;66.36;99526.54;236293;1195;139145;-61
2021/09/29 06:55:32;;;;;;;;;;;;;;;10.68;66.67;99527.17;236261;1194;139456;-62
2021/09/29 07:00:35;;;;;;;31.00;16.80;;;;;;;10.76;66.90;99526.34;236111;1195;125534;-60
2021/09/29 07:05:38;;;;;;;22.90;13.60;;;;;;;10.88;66.89;99530.12;236216;1194;139663;-66
2021/09/29 07:10:42;;;;;;;28.00;15.90;;;;;;;10.97;66.67;99530.33;235799;1195;139793;-62
2021/09/29 07:15:45;;;;;;;25.20;14.20;;;;;;;10.96;66.90;99532.17;235955;1195;139223;-62
2021/09/29 07:20:48;;;;;;;23.60;14.90;;;;;;;10.94;66.56;99532.63;236277;1195;140169;-62
2021/09/29 07:25:53;;;;;;;25.30;13.90;;;;;;;10.95;66.69;99530.61;235910;1196;139294;-60
2021/09/29 07:30:56;;;;;;;23.20;14.50;;;;;;;11.00;66.86;99536.39;236210;1195;139570;-62
2021/09/29 07:35:59;;;;;;;28.70;16.10;;;;;;;11.03;66.36;99534.23;236159;1195;140288;-62
2021/09/29 07:41:02;;;;;;;30.60;16.40;;;;;;;11.09;66.88;99539.60;236270;1191;140107;-61
2021/09/29 07:46:05;;;;;;;27.00;15.80;;;;;;;11.18;66.97;99537.02;236036;1195;139287;-62
2021/09/29 07:51:09;;;;;;;27.50;16.60;;;;;;;11.19;66.64;99539.59;236164;1195;138917;-60
2021/09/29 07:56:12;;;;;;;28.40;17.20;;;;;;;11.25;67.17;99539.77;235930;1195;139396;-62
2021/09/29 08:01:15;;;;;;;29.00;17.10;;;;;;;11.29;66.61;99548.61;235800;1196;138974;-61
2021/09/29 08:06:19;;;;;;;29.50;16.00;;;;;;;11.32;66.96;99548.59;235908;1195;139054;-63
2021/09/29 08:11:23;;;;;;;26.40;15.90;;;;;;;11.40;66.71;99544.98;236075;1195;140188;-63
2021/09/29 08:16:26;;;;;;;36.10;18.30;;;;;;;11.42;66.83;99546.95;235928;1195;139661;-64
2021/09/29 08:21:30;;;;;;;31.50;16.70;;;;;;;11.52;66.87;99545.83;235997;1195;139141;-63
2021/09/29 08:32:12;;;;;;;32.20;17.90;;;;;;;11.75;66.96;99540.80;236319;1195;139089;-61
2021/09/29 08:43:08;;;;;;;33.20;17.50;;;;;;;11.77;66.81;99547.93;235943;1195;140021;-64
2021/09/29 08:48:06;;;;;;;40.80;22.80;;;;;;;11.83;67.03;99543.89;235648;1181;139924;-62
2021/09/29 09:19:44;;;;;;;186.20;122.30;;;;;;;12.14;66.74;99531.01;235972;1195;139486;-63
2021/09/29 09:24:52;;;;;;;360.80;220.00;;;;;;;12.26;67.06;99539.52;235948;1196;139969;-61
2021/09/29 09:29:55;;;;;;;31.10;19.50;;;;;;;12.38;66.92;99538.45;235861;1195;139797;-62
2021/09/29 09:35:00;;;;;;;27.80;18.20;;;;;;;12.45;66.59;99535.02;235951;1195;140334;-65
2021/09/29 09:40:06;;;;;;;28.00;17.90;;;;;;;12.48;66.57;99532.84;236007;1195;139848;-62
2021/09/29 09:45:10;;;;;;;28.00;17.40;;;;;;;12.53;66.39;99533.60;235688;1190;141097;-60
2021/09/29 09:50:33;;;;;;;34.70;20.30;;;;;;;12.56;66.43;99529.68;235844;1196;138885;-61
2021/09/29 09:55:37;;;;;;;34.40;19.00;;;;;;;12.67;66.58;99527.91;236016;1196;138939;-61
2021/09/29 10:00:40;;;;;;;27.80;18.20;;;;;;;12.73;66.56;99520.25;236037;1195;139362;-64
2021/09/29 10:05:47;;;;;;;28.90;19.20;;;;;;;12.77;66.52;99513.61;236075;1195;139102;-62
2021/09/29 10:11:29;;;;;;;29.90;17.80;;;;;;;12.84;66.56;99509.74;235973;1195;138960;-61
2021/09/29 10:27:17;;;;;;;28.30;18.20;;;;;;;13.43;66.59;99517.50;235898;1195;139873;-61
2021/09/29 10:32:26;;;;;;;30.40;20.50;;;;;;;13.57;66.53;99515.02;236054;1195;139884;-61
2021/09/29 10:43:04;;;;;;;28.20;19.90;;;;;;;13.85;66.48;99503.35;235758;1195;140635;-62
2021/09/29 10:48:36;;;;;;;441.90;325.50;;;;;;;13.96;66.12;99494.88;235771;1195;139330;-62
2021/09/29 11:05:08;;;;;;;27.00;18.30;;;;;;;14.20;65.75;99480.02;235684;1196;139692;-62
2021/09/29 11:31:48;;;;;;;32.90;20.40;;;;;;;14.78;65.82;99468.77;235993;1195;141159;-61
2021/09/29 12:09:29;;;;;;;23.00;16.40;;;;;;;16.21;65.21;99418.29;236286;1187;139747;-60
2021/09/29 12:14:34;;;;;;;25.40;18.10;;;;;;;16.29;64.89;99416.02;235831;1195;139698;-61
2021/09/29 12:19:40;;;;;;;23.70;17.20;;;;;;;16.31;64.79;99415.26;235950;1196;140751;-61
2021/09/29 12:25:03;;;;;;;27.20;17.50;;;;;;;16.30;64.86;99412.51;236018;1195;139221;-62
2021/09/29 12:30:17;;;;;;;45.60;21.10;;;;;;;16.32;64.82;99414.67;236024;1194;139250;-62
2021/09/29 12:35:55;;;;;;;25.60;15.90;;;;;;;16.43;64.94;99408.46;235913;1195;140015;-59
2021/09/29 12:40:50;;;;;;;23.90;15.50;;;;;;;16.52;64.87;99397.66;235706;1196;139492;-61
2021/09/29 12:45:53;;;;;;;22.40;16.00;;;;;;;16.63;64.91;99399.30;236076;1195;139600;-60
2021/09/29 12:56:10;;;;;;;228.90;162.30;;;;;;;16.86;64.98;99401.07;235622;1195;140169;-61
2021/09/29 13:01:15;;;;;;;37.30;25.00;;;;;;;17.00;65.20;99399.52;235755;1195;139576;-60
2021/09/29 13:06:18;;;;;;;23.70;14.00;;;;;;;17.15;64.94;99395.58;236129;1195;140700;-60
2021/09/29 13:11:21;;;;;;;22.40;14.10;;;;;;;17.32;64.93;99396.14;236238;1195;138927;-61
2021/09/29 13:16:26;;;;;;;26.60;14.90;;;;;;;17.47;64.97;99395.05;235694;1195;140195;-60
2021/09/29 13:21:39;;;;;;;25.10;13.80;;;;;;;17.60;64.96;99387.83;235646;1195;139845;-61
2021/09/29 13:37:28;;;;;;;369.10;293.00;;;;;;;17.94;64.56;99387.96;236199;1195;139836;-62
2021/09/29 13:42:34;;;;;;;33.00;22.80;;;;;;;17.97;64.63;99384.88;235937;1195;140502;-61
2021/09/29 13:47:37;;;;;;;26.10;16.20;;;;;;;17.98;64.59;99379.02;235851;1195;140620;-61
2021/09/29 13:52:44;;;;;;;27.10;16.60;;;;;;;17.94;64.50;99373.10;236115;1195;139622;-62
2021/09/29 13:58:12;;;;;;;23.90;15.70;;;;;;;17.87;64.45;99367.63;235857;1195;140250;-61
2021/09/29 14:35:13;;;;;;;24.90;15.00;;;;;;;17.76;65.12;99352.55;235970;1195;139493;-60
2021/09/29 14:40:19;;;;;;;479.30;356.30;;;;;;;17.74;65.21;99349.30;235773;1196;139747;-62
2021/09/29 14:45:28;;;;;;;24.30;15.80;;;;;;;17.71;65.13;99348.98;235551;1195;140441;-61
2021/09/29 14:50:31;;;;;;;23.40;13.80;;;;;;;17.67;65.30;99346.13;235887;1195;140983;-61
2021/09/29 14:55:34;;;;;;;29.60;16.50;;;;;;;17.70;65.27;99351.43;236054;1195;139896;-61
2021/09/29 15:00:37;;;;;;;51.70;32.80;;;;;;;17.73;65.59;99351.56;235767;1195;139642;-63
2021/09/29 15:05:42;;;;;;;34.60;16.80;;;;;;;17.76;65.52;99353.50;235762;1195;139589;-64
2021/09/29 15:10:46;;;;;;;30.10;16.90;;;;;;;17.70;65.54;99352.35;236027;1195;139503;-63
2021/09/29 15:47:51;;;;;;;28.40;17.00;;;;;;;17.47;65.78;99354.88;235743;1195;140359;-63
2021/09/29 16:35:25;;;;;;;27.50;15.80;;;;;;;17.34;66.89;99368.89;235641;1195;140367;-62
2021/09/29 16:40:28;;;;;;;20.90;11.10;;;;;;;17.33;66.91;99364.52;236095;1195;140680;-60
2021/09/29 16:45:32;;;;;;;14.50;8.60;;;;;;;17.35;66.94;99363.46;235962;1194;139216;-66
2021/09/29 16:50:58;;;;;;;12.10;8.30;;;;;;;17.33;66.94;99364.52;235812;1196;139179;-63
2021/09/29 16:56:02;;;;;;;13.10;7.70;;;;;;;17.30;66.90;99364.59;235805;1195;138622;-62
2021/09/29 17:01:08;;;;;;;62.50;46.30;;;;;;;17.26;66.85;99361.66;235998;1195;141677;-61
2021/09/29 17:06:13;;;;;;;96.70;64.50;;;;;;;17.28;66.96;99360.98;236245;1195;140202;-62
2021/09/29 17:11:17;;;;;;;22.20;12.20;;;;;;;17.35;67.25;99359.10;236210;1195;139325;-63
2021/09/29 17:16:24;;;;;;;12.40;8.50;;;;;;;17.36;66.73;99368.52;236012;1195;139161;-63
2021/09/29 17:21:27;;;;;;;18.00;9.90;;;;;;;17.34;66.64;99372.68;236070;1195;139414;-64
2021/09/29 17:26:31;;;;;;;13.40;8.90;;;;;;;17.25;66.42;99376.27;235905;1195;138827;-62
2021/09/29 17:31:45;;;;;;;13.90;9.10;;;;;;;17.17;66.48;99378.58;235920;1195;139501;-65
2021/09/29 17:52:38;;;;;;;15.70;8.70;;;;;;;16.82;66.57;99391.73;236037;1195;139043;-59
2021/09/29 17:57:44;;;;;;;14.20;9.50;;;;;;;16.78;66.69;99387.36;235769;1195;138869;-63
2021/09/29 18:07:51;;;;;;;15.80;10.10;;;;;;;16.72;66.88;99393.58;236134;1195;140355;-62
2021/09/29 18:12:56;;;;;;;17.00;9.40;;;;;;;16.65;66.71;99404.14;235880;1195;139680;-60
2021/09/29 18:17:59;;;;;;;15.40;9.90;;;;;;;16.63;67.07;99406.09;235805;1195;138962;-61
2021/09/29 18:23:03;;;;;;;17.90;10.00;;;;;;;16.61;67.11;99407.35;235860;1195;139331;-63
2021/09/29 18:28:07;;;;;;;15.80;9.80;;;;;;;16.60;66.88;99410.65;236022;1194;142261;-62
2021/09/29 18:33:18;;;;;;;14.10;9.60;;;;;;;16.53;66.85;99407.06;236128;1195;138624;-63
2021/09/29 18:38:27;;;;;;;14.70;9.20;;;;;;;16.46;66.86;99411.64;236127;1195;138788;-61
2021/09/29 18:43:52;;;;;;;13.90;9.30;;;;;;;16.40;67.11;99410.15;235837;1195;140437;-61
2021/09/29 18:48:55;;;;;;;16.50;10.30;;;;;;;16.37;67.20;99419.31;236066;1195;139647;-63
2021/09/29 18:55:07;;;;;;;14.20;10.60;;;;;;;16.36;67.10;99420.63;236043;1195;139727;-64
2021/09/29 19:10:14;;;;;;;15.20;9.60;;;;;;;16.32;67.51;99417.02;235863;1195;139270;-62
2021/09/29 19:15:22;;;;;;;16.70;9.50;;;;;;;16.30;67.29;99420.75;236151;1195;139541;-63
2021/09/29 19:20:27;;;;;;;15.30;9.80;;;;;;;16.27;67.42;99424.36;235906;1195;140190;-62
2021/09/29 19:25:30;;;;;;;16.10;9.80;;;;;;;16.26;67.48;99425.39;236376;1195;138911;-61
2021/09/29 19:30:34;;;;;;;16.70;9.60;;;;;;;16.23;67.42;99427.08;236161;1195;139443;-69
2021/09/29 19:35:37;;;;;;;17.30;10.60;;;;;;;16.18;67.33;99436.77;235766;1195;139414;-66
2021/09/29 19:40:44;;;;;;;15.00;9.30;;;;;;;16.10;67.58;99433.29;236044;1195;139527;-61
2021/09/29 19:45:50;;;;;;;14.60;9.50;;;;;;;16.04;67.55;99438.55;235576;1195;139224;-62
2021/09/29 19:51:07;;;;;;;16.70;10.20;;;;;;;16.02;67.80;99441.59;235639;1196;139377;-63
2021/09/29 20:12:19;;;;;;;17.30;9.60;;;;;;;15.86;67.69;99457.37;235747;1196;140170;-61
2021/09/29 20:17:22;;;;;;;13.60;9.60;;;;;;;15.78;67.98;99457.92;235908;1195;234045;-61
2021/09/29 20:22:26;;;;;;;17.60;10.00;;;;;;;15.84;68.13;99466.39;236049;1195;142397;-63
2021/09/29 20:27:30;;;;;;;19.30;10.70;;;;;;;15.87;68.36;99459.80;236017;1195;139517;-67
2021/09/29 20:32:33;;;;;;;15.90;10.40;;;;;;;15.86;68.40;99459.83;236305;1195;138868;-63
2021/09/29 20:43:04;;;;;;;17.80;10.00;;;;;;;15.73;68.18;99471.09;235993;1195;139156;-62
2021/09/29 20:48:08;;;;;;;17.30;10.60;;;;;;;15.56;68.15;99485.73;235633;1195;140563;-63
2021/09/29 20:53:13;;;;;;;22.30;11.60;;;;;;;15.46;68.46;99482.71;235916;1195;140243;-61
2021/09/29 20:58:17;;;;;;;18.70;10.40;;;;;;;15.46;68.71;99479.16;236181;1195;139143;-60
2021/09/29 21:03:20;;;;;;;18.10;11.30;;;;;;;15.51;68.93;99480.17;235596;1195;139134;-64
2021/09/29 21:08:43;;;;;;;22.30;11.70;;;;;;;15.53;68.94;99481.66;236006;1195;139638;-64
2021/09/29 21:13:53;;;;;;;18.40;10.80;;;;;;;15.50;68.85;99486.73;235983;1195;139921;-63
2021/09/29 21:18:56;;;;;;;16.20;10.80;;;;;;;15.50;68.96;99492.28;236204;1195;139680;-64
2021/09/29 21:24:00;;;;;;;21.00;11.90;;;;;;;15.47;68.98;99503.53;235688;1194;139947;-62
2021/09/29 21:29:04;;;;;;;19.90;12.20;;;;;;;15.50;69.25;99503.01;236043;1195;139624;-62
2021/09/29 21:34:08;;;;;;;20.80;12.40;;;;;;;15.48;69.11;99499.58;236159;1195;139695;-62
2021/09/29 21:39:23;;;;;;;23.70;14.00;;;;;;;15.49;69.14;99502.17;236030;1195;141328;-60
2021/09/29 23:04:55;;;;;;;31.60;17.90;;;;;;;14.95;70.97;99545.77;236291;1195;140779;-61
2021/09/29 23:10:02;;;;;;;31.40;18.50;;;;;;;14.93;71.10;99549.17;236270;1195;141267;-64
2021/09/29 23:36:32;;;;;;;40.90;28.20;;;;;;;14.72;71.62;99560.33;236060;1195;142426;-61
2021/09/29 23:41:35;;;;;;;46.60;28.60;;;;;;;14.70;71.69;99553.83;236355;1195;140042;-64
2021/09/29 23:46:39;;;;;;;47.40;29.80;;;;;;;14.66;71.88;99561.45;236140;1195;140225;-61
2021/09/29 23:51:44;;;;;;;47.50;29.90;;;;;;;14.55;71.86;99556.50;235845;1195;139403;-62
2021/09/29 23:56:47;;;;;;;47.80;30.50;;;;;;;14.51;72.12;99564.80;236301;1195;140504;-64
